createdAt,value
2023-02-23T00:00:29.353Z,88.20
2023-02-23T00:02:59.033Z,86.60
2023-02-23T00:05:29.911Z,86.70
2023-02-23T00:07:58.420Z,87.30
2023-02-23T00:10:30.227Z,88.00
2023-02-23T00:12:59.312Z,88.30
2023-02-23T00:15:29.833Z,89.00
2023-02-23T00:17:58.557Z,89.40
2023-02-23T00:20:27.618Z,89.40
2023-02-23T00:22:56.597Z,89.50
2023-02-23T00:25:25.129Z,89.60
2023-02-23T00:27:53.492Z,89.20
2023-02-23T00:30:21.517Z,89.20
2023-02-23T00:32:52.410Z,89.40
2023-02-23T00:35:20.275Z,88.80
2023-02-23T00:37:49.146Z,88.50
2023-02-23T00:40:18.253Z,88.50
2023-02-23T00:42:46.844Z,89.60
2023-02-23T00:45:15.344Z,89.70
2023-02-23T00:47:45.066Z,90.10
2023-02-23T00:50:16.549Z,90.40
2023-02-23T00:52:45.167Z,90.60
2023-02-23T00:55:14.835Z,90.70
2023-02-23T00:57:42.984Z,91.00
2023-02-23T01:00:19.029Z,91.00
2023-02-23T01:02:47.360Z,90.70
2023-02-23T01:05:17.488Z,91.20
2023-02-23T01:07:47.200Z,91.80
2023-02-23T01:10:20.193Z,91.80
2023-02-23T01:12:49.869Z,92.00
2023-02-23T01:15:18.760Z,91.50
2023-02-23T01:17:47.046Z,91.10
2023-02-23T01:20:19.120Z,91.60
2023-02-23T01:22:48.919Z,92.30
2023-02-23T01:25:17.516Z,91.70
2023-02-23T01:27:46.090Z,91.00
2023-02-23T01:30:16.160Z,90.70
2023-02-23T01:32:43.955Z,90.70
2023-02-23T01:35:13.534Z,90.80
2023-02-23T01:37:44.023Z,90.80
2023-02-23T01:40:15.826Z,90.80
2023-02-23T01:42:46.521Z,90.90
2023-02-23T01:45:24.428Z,91.80
2023-02-23T01:47:55.182Z,91.30
2023-02-23T01:50:23.971Z,90.80
2023-02-23T01:52:53.590Z,90.30
2023-02-23T01:55:24.310Z,90.00
2023-02-23T01:57:56.270Z,90.10
2023-02-23T02:00:27.781Z,89.20
2023-02-23T02:02:55.955Z,89.00
2023-02-23T02:05:24.213Z,88.90
2023-02-23T02:07:58.927Z,89.80
2023-02-23T02:10:40.510Z,89.10
2023-02-23T02:13:14.017Z,89.40
2023-02-23T02:16:06.305Z,89.70
2023-02-23T02:18:41.929Z,90.00
2023-02-23T02:21:46.955Z,89.90
2023-02-23T02:24:42.784Z,90.10
2023-02-23T02:27:26.626Z,89.90
2023-02-23T02:30:27.688Z,89.70
2023-02-23T02:33:26.617Z,90.00
2023-02-23T02:36:42.225Z,90.00
2023-02-23T02:39:23.731Z,89.80
2023-02-23T02:41:56.988Z,90.30
2023-02-23T02:44:31.419Z,91.30
2023-02-23T02:47:03.069Z,91.40
2023-02-23T02:49:35.115Z,91.40
2023-02-23T02:52:09.348Z,91.30
2023-02-23T02:54:41.413Z,91.80
2023-02-23T02:57:12.111Z,92.30
2023-02-23T03:00:04.684Z,92.60
2023-02-23T03:02:52.555Z,93.20
2023-02-23T03:05:40.343Z,93.60
2023-02-23T03:08:33.436Z,94.00
2023-02-23T03:11:22.522Z,94.20
2023-02-23T03:14:19.938Z,94.30
2023-02-23T03:17:15.211Z,94.50
2023-02-23T03:20:10.860Z,95.00
2023-02-23T03:23:00.977Z,95.70
2023-02-23T03:25:51.233Z,95.30
2023-02-23T03:28:43.475Z,93.80
2023-02-23T03:31:33.908Z,93.10
2023-02-23T03:34:28.478Z,92.60
2023-02-23T03:37:23.084Z,92.00
2023-02-23T03:40:14.634Z,91.80
2023-02-23T03:43:01.727Z,91.60
2023-02-23T03:45:49.292Z,91.90
2023-02-23T03:48:38.741Z,91.50
2023-02-23T03:51:27.796Z,91.50
2023-02-23T03:54:20.268Z,91.70
2023-02-23T03:57:09.971Z,91.60
2023-02-23T04:00:02.483Z,91.70
2023-02-23T04:02:52.980Z,91.50
2023-02-23T04:05:41.056Z,91.00
2023-02-23T04:08:30.449Z,91.10
2023-02-23T04:11:21.395Z,90.90
2023-02-23T04:13:54.401Z,90.90
2023-02-23T04:16:22.167Z,91.20
2023-02-23T04:18:51.325Z,91.30
2023-02-23T04:21:19.567Z,91.60
2023-02-23T04:23:47.732Z,91.60
2023-02-23T04:26:15.906Z,91.80
2023-02-23T04:28:44.320Z,92.10
2023-02-23T04:31:12.158Z,92.30
2023-02-23T04:33:39.945Z,92.30
2023-02-23T04:36:09.462Z,92.30
2023-02-23T04:38:37.258Z,92.40
2023-02-23T04:41:05.748Z,92.80
2023-02-23T04:43:33.525Z,93.20
2023-02-23T04:46:01.497Z,93.50
2023-02-23T04:48:29.440Z,94.10
2023-02-23T04:50:57.307Z,94.50
2023-02-23T04:53:27.011Z,94.90
2023-02-23T04:55:54.885Z,95.20
2023-02-23T04:58:22.705Z,95.70
2023-02-23T05:00:50.533Z,96.00
2023-02-23T05:03:18.394Z,96.70
2023-02-23T05:05:47.083Z,97.30
2023-02-23T05:08:14.916Z,97.90
2023-02-23T05:10:44.054Z,98.60
2023-02-23T05:13:11.841Z,99.10
2023-02-23T05:15:39.741Z,99.60
2023-02-23T05:18:08.100Z,99.70
2023-02-23T05:20:35.923Z,99.90
2023-02-23T05:23:03.900Z,99.90
2023-02-23T05:25:31.670Z,99.90
2023-02-23T05:28:01.162Z,99.90
2023-02-23T05:30:29.012Z,99.90
2023-02-23T05:32:56.849Z,99.90
2023-02-23T05:35:24.678Z,99.90
2023-02-23T05:37:52.504Z,99.90
2023-02-23T05:40:20.415Z,99.90
2023-02-23T05:42:48.214Z,99.90
2023-02-23T05:45:17.552Z,99.90
2023-02-23T05:47:45.442Z,99.90
2023-02-23T05:50:13.316Z,99.90
2023-02-23T05:52:41.870Z,99.90
2023-02-23T05:55:11.475Z,99.90
2023-02-23T05:57:42.760Z,99.90
2023-02-23T06:00:14.219Z,99.90
2023-02-23T06:02:43.535Z,99.90
2023-02-23T06:05:13.499Z,99.90
2023-02-23T06:07:41.769Z,99.90
2023-02-23T06:10:10.690Z,99.90
2023-02-23T06:12:38.593Z,99.90
2023-02-23T06:15:07.587Z,99.90
2023-02-23T06:17:36.312Z,99.90
2023-02-23T06:20:07.348Z,99.90
2023-02-23T06:22:35.306Z,99.90
2023-02-23T06:25:05.597Z,99.90
2023-02-23T06:27:33.452Z,99.90
2023-02-23T06:30:01.238Z,99.90
2023-02-23T06:32:29.052Z,99.90
2023-02-23T06:34:56.811Z,99.90
2023-02-23T06:37:26.179Z,99.90
2023-02-23T06:39:53.978Z,99.90
2023-02-23T06:42:21.800Z,99.90
2023-02-23T06:44:49.609Z,99.90
2023-02-23T06:47:17.707Z,99.90
2023-02-23T06:49:45.540Z,99.90
2023-02-23T06:52:13.852Z,99.90
2023-02-23T06:54:43.179Z,99.90
2023-02-23T06:57:11.580Z,99.90
2023-02-23T06:59:39.349Z,99.90
2023-02-23T07:02:08.397Z,99.90
2023-02-23T07:04:36.214Z,99.90
2023-02-23T07:07:04.411Z,99.90
2023-02-23T07:09:32.550Z,99.90
2023-02-23T07:12:02.335Z,99.90
2023-02-23T07:14:30.171Z,99.90
2023-02-23T07:16:58.204Z,99.90
2023-02-23T07:19:26.030Z,99.90
2023-02-23T07:21:54.106Z,99.90
2023-02-23T07:24:22.953Z,99.90
2023-02-23T07:26:52.112Z,99.90
2023-02-23T07:29:23.908Z,99.90
2023-02-23T07:31:52.002Z,99.90
2023-02-23T07:35:13.493Z,99.90
2023-02-23T07:37:50.141Z,99.90
2023-02-23T07:40:19.356Z,99.90
2023-02-23T07:42:47.199Z,99.90
2023-02-23T07:45:17.321Z,99.10
2023-02-23T07:47:45.394Z,98.90
2023-02-23T07:50:13.955Z,98.90
2023-02-23T07:52:43.264Z,97.70
2023-02-23T07:55:12.530Z,96.90
2023-02-23T07:57:40.465Z,97.70
2023-02-23T08:00:09.508Z,98.30
2023-02-23T08:02:38.689Z,98.00
2023-02-23T08:05:07.099Z,97.90
2023-02-23T08:07:34.910Z,97.30
2023-02-23T08:10:02.758Z,95.80
2023-02-23T08:12:30.567Z,95.30
2023-02-23T08:14:58.359Z,95.50
2023-02-23T08:17:26.164Z,94.30
2023-02-23T08:19:55.306Z,94.00
2023-02-23T08:22:23.060Z,93.50
2023-02-23T08:24:50.832Z,92.30
2023-02-23T08:27:18.902Z,90.40
2023-02-23T08:29:46.933Z,92.10
2023-02-23T08:32:15.069Z,88.20
2023-02-23T08:34:44.143Z,88.90
2023-02-23T08:37:13.379Z,90.00
2023-02-23T08:39:43.542Z,87.90
2023-02-23T08:42:11.485Z,87.10
2023-02-23T08:44:39.307Z,86.30
2023-02-23T08:47:07.140Z,85.70
2023-02-23T08:49:34.888Z,85.00
2023-02-23T08:52:02.693Z,85.40
2023-02-23T08:54:31.860Z,84.50
2023-02-23T08:56:59.629Z,86.40
2023-02-23T08:59:27.846Z,85.20
2023-02-23T09:01:55.623Z,85.50
2023-02-23T09:04:23.481Z,83.90
2023-02-23T09:06:51.353Z,84.20
2023-02-23T09:09:19.471Z,84.30
2023-02-23T09:11:48.701Z,84.20
2023-02-23T09:14:16.472Z,84.50
2023-02-23T09:16:44.957Z,84.20
2023-02-23T09:19:13.039Z,83.10
2023-02-23T09:21:41.418Z,82.60
2023-02-23T09:24:09.185Z,80.90
2023-02-23T09:26:40.092Z,80.60
2023-02-23T09:29:09.254Z,79.10
2023-02-23T09:31:37.341Z,78.60
2023-02-23T09:34:05.221Z,78.10
2023-02-23T09:36:33.251Z,76.80
2023-02-23T09:39:01.458Z,76.70
2023-02-23T09:42:01.147Z,77.40
2023-02-23T09:44:42.989Z,77.00
2023-02-23T09:47:24.445Z,75.50
2023-02-23T09:49:53.450Z,77.60
2023-02-23T09:52:24.988Z,76.20
2023-02-23T09:54:53.198Z,75.70
2023-02-23T09:57:25.945Z,74.30
2023-02-23T09:59:55.026Z,73.90
2023-02-23T10:02:30.484Z,75.10
2023-02-23T10:05:03.147Z,75.50
2023-02-23T10:07:43.444Z,75.70
2023-02-23T10:10:27.658Z,74.90
2023-02-23T10:13:03.034Z,73.50
2023-02-23T10:15:39.777Z,72.30
2023-02-23T10:18:19.996Z,71.00
2023-02-23T10:20:54.585Z,71.10
2023-02-23T10:23:31.263Z,70.50
2023-02-23T10:26:01.624Z,69.50
2023-02-23T10:28:35.030Z,68.80
2023-02-23T10:31:08.972Z,67.70
2023-02-23T10:33:42.320Z,67.70
2023-02-23T10:36:17.404Z,65.80
2023-02-23T10:38:45.888Z,65.70
2023-02-23T10:41:16.871Z,65.00
2023-02-23T10:43:44.847Z,64.60
2023-02-23T10:46:21.936Z,65.10
2023-02-23T10:48:51.894Z,64.30
2023-02-23T10:51:25.485Z,64.30
2023-02-23T10:53:53.760Z,63.90
2023-02-23T10:56:23.276Z,64.90
2023-02-23T10:58:53.499Z,65.20
2023-02-23T11:01:41.907Z,66.30
2023-02-23T11:04:22.032Z,67.90
2023-02-23T11:06:50.645Z,68.90
2023-02-23T11:09:41.296Z,68.10
2023-02-23T11:12:21.636Z,68.30
2023-02-23T11:14:50.620Z,70.30
2023-02-23T11:17:36.057Z,69.70
2023-02-23T11:20:07.327Z,69.20
2023-02-23T11:22:38.011Z,69.10
2023-02-23T11:25:19.741Z,69.40
2023-02-23T11:27:51.341Z,70.20
2023-02-23T11:30:24.398Z,68.50
2023-02-23T11:32:55.779Z,68.10
2023-02-23T11:35:31.194Z,69.20
2023-02-23T11:37:59.406Z,68.50
2023-02-23T11:40:29.158Z,68.90
2023-02-23T11:43:07.269Z,68.80
2023-02-23T11:45:45.538Z,69.10
2023-02-23T11:48:23.380Z,71.30
2023-02-23T11:50:51.546Z,71.20
2023-02-23T11:53:28.350Z,70.30
2023-02-23T11:55:59.204Z,71.00
2023-02-23T11:58:35.680Z,70.20
2023-02-23T12:01:11.927Z,70.80
2023-02-23T12:03:47.662Z,71.10
2023-02-23T12:06:29.978Z,71.30
2023-02-23T12:09:04.486Z,70.00
2023-02-23T12:11:38.202Z,70.10
2023-02-23T12:14:13.445Z,70.50
2023-02-23T12:16:44.757Z,69.90
2023-02-23T12:19:25.138Z,70.70
2023-02-23T12:22:01.545Z,69.80
2023-02-23T12:24:39.163Z,69.90
2023-02-23T12:27:12.777Z,69.20
2023-02-23T12:29:52.796Z,70.10
2023-02-23T12:32:25.265Z,70.70
2023-02-23T12:34:59.181Z,71.20
2023-02-23T12:37:38.220Z,71.50
2023-02-23T12:40:16.508Z,70.80
2023-02-23T12:42:50.500Z,70.50
2023-02-23T12:45:25.641Z,70.30
2023-02-23T12:48:01.887Z,70.90
2023-02-23T12:50:34.664Z,69.40
2023-02-23T12:53:13.324Z,69.50
2023-02-23T12:55:51.725Z,70.00
2023-02-23T12:58:28.413Z,69.10
2023-02-23T13:01:02.737Z,69.10
2023-02-23T13:03:47.607Z,68.10
2023-02-23T13:06:30.455Z,68.80
2023-02-23T13:09:11.437Z,68.80
2023-02-23T13:11:57.205Z,69.40
2023-02-23T13:14:32.531Z,69.40
2023-02-23T13:17:04.992Z,69.80
2023-02-23T13:19:42.366Z,70.70
2023-02-23T13:22:27.695Z,71.00
2023-02-23T13:24:59.123Z,70.90
2023-02-23T13:27:31.508Z,70.30
2023-02-23T13:29:59.440Z,70.90
2023-02-23T13:32:31.999Z,71.00
2023-02-23T13:35:01.528Z,71.20
2023-02-23T13:37:36.622Z,70.80
2023-02-23T13:40:19.843Z,70.70
2023-02-23T13:42:58.724Z,71.10
2023-02-23T13:45:49.680Z,71.20
2023-02-23T13:48:28.439Z,70.90
2023-02-23T13:51:02.550Z,71.30
2023-02-23T13:53:40.923Z,71.20
2023-02-23T13:56:11.138Z,71.60
2023-02-23T13:58:46.029Z,70.90
2023-02-23T14:01:18.396Z,70.80
2023-02-23T14:03:53.801Z,70.40
2023-02-23T14:06:24.587Z,69.80
2023-02-23T14:09:00.686Z,70.20
2023-02-23T14:11:31.016Z,69.70
2023-02-23T14:14:01.493Z,70.10
2023-02-23T14:16:29.360Z,69.40
2023-02-23T14:19:07.418Z,69.10
2023-02-23T14:21:43.666Z,69.20
2023-02-23T14:24:22.153Z,68.80
2023-02-23T14:27:40.258Z,69.80
2023-02-23T14:30:49.758Z,68.10
2023-02-23T14:33:36.379Z,69.40
2023-02-23T14:36:34.203Z,68.60
2023-02-23T14:39:04.293Z,68.70
2023-02-23T14:41:40.981Z,68.70
2023-02-23T14:44:27.202Z,68.90
2023-02-23T14:47:01.910Z,69.50
2023-02-23T14:49:34.929Z,69.20
2023-02-23T14:52:08.459Z,69.30
2023-02-23T14:54:37.573Z,68.90
2023-02-23T14:57:17.568Z,70.10
2023-02-23T14:59:46.643Z,69.20
2023-02-23T15:02:20.222Z,69.90
2023-02-23T15:04:48.231Z,70.20
2023-02-23T15:07:24.095Z,70.00
2023-02-23T15:09:53.984Z,70.20
2023-02-23T15:12:28.316Z,70.70
2023-02-23T15:14:59.422Z,71.20
2023-02-23T15:17:31.877Z,71.30
2023-02-23T15:20:15.438Z,71.70
2023-02-23T15:22:48.117Z,71.50
2023-02-23T15:25:18.045Z,71.70
2023-02-23T15:27:48.708Z,71.70
2023-02-23T15:30:23.518Z,72.50
2023-02-23T15:33:01.360Z,73.10
2023-02-23T15:35:31.349Z,73.50
2023-02-23T15:38:11.531Z,74.00
2023-02-23T15:40:46.838Z,73.80
2023-02-23T15:43:16.058Z,73.30
2023-02-23T15:45:50.295Z,73.90
2023-02-23T15:48:22.866Z,75.30
2023-02-23T15:50:53.742Z,75.40
2023-02-23T15:53:29.663Z,77.80
2023-02-23T15:56:02.917Z,80.50
2023-02-23T15:58:34.266Z,83.40
2023-02-23T16:01:12.102Z,86.90
2023-02-23T16:03:44.109Z,87.90
2023-02-23T16:06:24.665Z,88.80
2023-02-23T16:08:59.864Z,88.90
2023-02-23T16:11:33.008Z,89.00
2023-02-23T16:14:04.085Z,88.20
2023-02-23T16:16:35.852Z,86.90
2023-02-23T16:19:04.977Z,86.80
2023-02-23T16:21:34.690Z,86.90
2023-02-23T16:24:09.000Z,87.70
2023-02-23T16:26:50.313Z,88.20
2023-02-23T16:29:26.395Z,87.40
2023-02-23T16:31:58.447Z,87.90
2023-02-23T16:34:28.095Z,88.00
2023-02-23T16:37:01.382Z,89.20
2023-02-23T16:39:30.892Z,90.40
2023-02-23T16:42:00.122Z,90.70
2023-02-23T16:44:43.004Z,90.80
2023-02-23T16:47:36.199Z,91.00
2023-02-23T16:50:19.198Z,91.70
2023-02-23T16:52:51.825Z,91.50
2023-02-23T16:55:25.377Z,92.10
2023-02-23T16:57:55.622Z,92.50
2023-02-23T17:00:28.464Z,92.80
2023-02-23T17:02:57.258Z,92.30
2023-02-23T17:05:25.692Z,92.50
2023-02-23T17:07:54.756Z,93.10
2023-02-23T17:10:27.574Z,93.00
2023-02-23T17:12:59.544Z,93.60
2023-02-23T17:15:30.872Z,94.10
2023-02-23T17:17:58.914Z,94.90
2023-02-23T17:20:28.321Z,96.20
2023-02-23T17:22:58.383Z,97.30
2023-02-23T17:25:27.328Z,97.90
2023-02-23T17:27:56.083Z,98.00
2023-02-23T17:30:24.631Z,98.70
2023-02-23T17:32:55.762Z,98.10
2023-02-23T17:35:24.521Z,98.40
2023-02-23T17:37:52.750Z,98.30
2023-02-23T17:40:28.655Z,98.80
2023-02-23T17:42:57.757Z,99.10
2023-02-23T17:45:25.923Z,99.20
2023-02-23T17:47:55.507Z,99.50
2023-02-23T17:50:24.050Z,99.90
2023-02-23T17:52:52.586Z,99.80
2023-02-23T17:55:22.180Z,99.90
2023-02-23T17:57:50.029Z,99.90
2023-02-23T18:00:20.552Z,99.90
2023-02-23T18:02:48.650Z,99.90
2023-02-23T18:05:18.026Z,99.90
2023-02-23T18:07:48.351Z,99.90
2023-02-23T18:10:17.150Z,99.90
2023-02-23T18:12:45.440Z,99.90
2023-02-23T18:15:13.419Z,99.90
2023-02-23T18:17:41.202Z,99.90
2023-02-23T18:20:13.907Z,99.90
2023-02-23T18:22:43.157Z,99.90
2023-02-23T18:25:19.813Z,99.90
2023-02-23T18:27:50.962Z,99.90
2023-02-23T18:30:18.940Z,99.90
2023-02-23T18:32:47.212Z,99.90
2023-02-23T18:35:15.084Z,99.90
2023-02-23T18:37:44.257Z,99.90
2023-02-23T18:40:21.068Z,99.90
2023-02-23T18:42:49.084Z,99.90
2023-02-23T18:45:17.584Z,99.90
2023-02-23T18:47:45.315Z,99.90
2023-02-23T18:50:19.182Z,99.90
2023-02-23T18:52:50.643Z,99.90
2023-02-23T18:55:20.076Z,99.90
2023-02-23T18:57:48.691Z,99.90
2023-02-23T19:00:19.314Z,99.90
2023-02-23T19:02:47.409Z,99.90
2023-02-23T19:05:17.352Z,99.90
2023-02-23T19:07:46.001Z,99.90
2023-02-23T19:10:16.199Z,99.90
2023-02-23T19:12:44.340Z,99.90
2023-02-23T19:15:13.157Z,99.90
2023-02-23T19:17:41.080Z,99.90
2023-02-23T19:20:13.513Z,99.90
2023-02-23T19:22:42.359Z,99.90
2023-02-23T19:25:14.184Z,99.90
2023-02-23T19:27:44.112Z,99.90
2023-02-23T19:30:14.183Z,99.90
2023-02-23T19:32:42.248Z,99.90
2023-02-23T19:35:14.683Z,99.90
2023-02-23T19:37:48.164Z,99.90
2023-02-23T19:40:19.739Z,99.90
2023-02-23T19:42:49.589Z,99.90
2023-02-23T19:45:18.212Z,99.90
2023-02-23T19:47:46.127Z,99.90
2023-02-23T19:50:16.749Z,99.90
2023-02-23T19:52:46.074Z,99.90
2023-02-23T19:55:14.369Z,99.90
2023-02-23T19:57:42.434Z,99.90
2023-02-23T20:00:13.379Z,99.90
2023-02-23T20:02:43.492Z,99.90
2023-02-23T20:05:11.953Z,99.90
2023-02-23T20:07:40.178Z,99.90
2023-02-23T20:10:10.309Z,99.90
2023-02-23T20:12:38.295Z,99.90
2023-02-23T20:15:07.209Z,99.90
2023-02-23T20:17:36.344Z,99.90
2023-02-23T20:20:06.240Z,99.90
2023-02-23T20:22:35.575Z,99.90
2023-02-23T20:25:05.870Z,99.90
2023-02-23T20:27:35.833Z,99.90
2023-02-23T20:30:03.943Z,99.90
2023-02-23T20:32:31.757Z,99.90
2023-02-23T20:35:01.523Z,99.90
2023-02-23T20:37:29.363Z,99.90
2023-02-23T20:39:57.107Z,99.90
2023-02-23T20:42:28.112Z,99.90
2023-02-23T20:44:56.343Z,99.90
2023-02-23T20:47:24.588Z,99.90
2023-02-23T20:49:52.426Z,99.90
2023-02-23T20:52:21.613Z,99.90
2023-02-23T20:54:49.367Z,99.90
2023-02-23T20:57:17.118Z,99.90
2023-02-23T20:59:44.911Z,99.90
2023-02-23T21:02:15.078Z,99.90
2023-02-23T21:04:44.368Z,99.90
2023-02-23T21:07:13.304Z,99.90
2023-02-23T21:09:42.590Z,99.90
2023-02-23T21:12:11.189Z,99.90
2023-02-23T21:14:38.975Z,99.90
2023-02-23T21:17:07.317Z,99.90
2023-02-23T21:19:36.341Z,99.90
2023-02-23T21:22:04.226Z,99.90
2023-02-23T21:24:34.784Z,99.90
2023-02-23T21:27:05.238Z,99.90
2023-02-23T21:29:33.094Z,99.90
2023-02-23T21:32:01.032Z,99.90
2023-02-23T21:34:28.866Z,99.90
2023-02-23T21:36:59.083Z,99.90
2023-02-23T21:39:28.017Z,99.90
2023-02-23T21:41:55.998Z,99.90
2023-02-23T21:44:28.314Z,99.90
2023-02-23T21:46:56.099Z,99.90
2023-02-23T21:49:24.034Z,99.90
2023-02-23T21:51:54.002Z,99.90
2023-02-23T21:54:21.761Z,99.90
2023-02-23T21:56:49.562Z,99.90
2023-02-23T21:59:17.377Z,99.90
2023-02-23T22:01:46.531Z,99.90
2023-02-23T22:04:16.115Z,99.90
2023-02-23T22:06:45.144Z,99.90
2023-02-23T22:09:15.401Z,99.90
2023-02-23T22:11:46.444Z,99.90
2023-02-23T22:14:16.648Z,99.90
2023-02-23T22:16:46.446Z,99.90
2023-02-23T22:19:14.696Z,99.90
2023-02-23T22:21:43.016Z,99.90
2023-02-23T22:24:12.925Z,99.90
2023-02-23T22:26:53.926Z,99.90
2023-02-23T22:29:22.375Z,99.90
2023-02-23T22:31:52.201Z,99.90
2023-02-23T22:34:20.187Z,99.90
2023-02-23T22:36:48.333Z,99.90
2023-02-23T22:39:18.199Z,99.90
2023-02-23T22:41:47.074Z,99.90
2023-02-23T22:44:16.690Z,99.90
2023-02-23T22:46:47.473Z,99.90
2023-02-23T22:49:19.693Z,99.90
2023-02-23T22:51:47.870Z,99.90
2023-02-23T22:54:17.233Z,99.90
2023-02-23T22:56:46.765Z,99.90
2023-02-23T22:59:17.305Z,99.90
2023-02-23T23:01:45.150Z,99.90
2023-02-23T23:04:14.724Z,99.90
2023-02-23T23:06:44.391Z,99.90
2023-02-23T23:09:13.182Z,99.90
2023-02-23T23:11:42.565Z,99.90
2023-02-23T23:14:11.986Z,99.90
2023-02-23T23:16:47.718Z,99.90
2023-02-23T23:19:17.423Z,99.90
2023-02-23T23:21:47.016Z,99.90
2023-02-23T23:24:15.554Z,99.90
2023-02-23T23:26:44.197Z,99.90
2023-02-23T23:29:15.586Z,99.90
2023-02-23T23:31:46.353Z,99.90
2023-02-23T23:34:21.419Z,99.90
2023-02-23T23:36:53.019Z,99.90
2023-02-23T23:39:23.619Z,99.90
2023-02-23T23:41:51.763Z,99.90
2023-02-23T23:44:21.322Z,99.90
2023-02-23T23:46:51.343Z,99.90
2023-02-23T23:49:21.475Z,99.90
2023-02-23T23:51:52.024Z,99.90
2023-02-23T23:54:21.663Z,99.90
2023-02-23T23:56:49.903Z,99.90
2023-02-23T23:59:21.203Z,99.90
